Latest Weather Observations for Coolangatta

IDQ60801

Issued at 5:52 pm EST Tuesday 17 May 2022 (issued every 10 minutes, with the page automatically refreshed every 10 minutes)

About weather observations | Map of weather stations | Latest weather observations for QLD | Other Formats
Station Details ID: 040717 Name: COOLANGATTA Lat: -28.17 Lon: 153.51 Height: 4.0 m
Data from the previous 72 hours. | See also: Recent months at Coolangatta

Observations at Coolangatta are collected in the Queensland time zone, which does not include daylight savings during the summer period. Therefore 'Rain since 9am' totals and other values are based on the Queensland time zone.

Date/Time
EST
Temp
°C
App
Temp
°C
Dew
Point
°C
Rel
Hum
%
Delta-T
°C
Wind Press
QNH
hPa
Press
MSL
hPa
Rain since
9am
mm
Dir  Spd
km/h
Gust
km/h
Spd
kts
Gust
kts
17/05:30pm 21.4 21.3 17.8 80 2.2 S 15 20 8 11 1017.3 1017.3 0.0
17/05:00pm 21.5 20.7 17.9 80 2.2 SSE 19 28 10 15 1017.1 1017.1 0.0
17/04:30pm 21.7 20.9 18.1 80 2.2 SSE 19 28 10 15 1017.1 1017.1 0.0
17/04:00pm 21.7 21.3 18.1 80 2.2 S 17 24 9 13 1016.9 1016.9 0.0
17/03:30pm 21.9 20.9 17.9 78 2.5 SSE 20 35 11 19 1016.7 1016.7 0.0
17/03:00pm 22.7 21.5 18.5 77 2.6 S 22 28 12 15 1016.5 1016.5 0.0
17/02:30pm 22.6 21.3 18.2 76 2.8 S 22 32 12 17 1016.5 1016.5 0.0
17/02:00pm 24.4 22.5 18.6 70 3.7 S 26 41 14 22 1016.1 1016.1 0.0
17/01:30pm 24.5 22.9 19.3 73 3.3 S 26 37 14 20 1016.1 1016.1 0.0
17/01:00pm 25.6 24.1 19.5 69 3.9 SSE 26 37 14 20 1016.0 1016.0 0.0
17/12:30pm 26.1 25.5 19.7 68 4.1 SSE 22 32 12 17 1016.2 1016.2 0.0
17/12:00pm 24.9 24.5 19.3 71 3.6 S 20 28 11 15 1016.5 1016.5 0.0
17/11:30am 25.5 25.0 19.9 71 3.6 SSE 22 30 12 16 1016.7 1016.7 0.0
17/11:00am 24.9 25.6 20.4 76 2.9 S 17 22 9 12 1016.9 1016.9 0.0
17/10:30am 24.8 25.3 20.1 75 3.0 SSE 17 19 9 10 1017.2 1017.2 0.0
17/10:00am 25.4 26.6 20.0 72 3.5 S 13 22 7 12 1017.2 1017.2 0.0
17/09:30am 24.9 25.7 19.9 74 3.2 S 15 22 8 12 1017.4 1017.4 0.0
17/09:00am 23.8 24.1 19.5 77 2.8 S 17 22 9 12 1017.3 1017.3 0.0
17/08:30am 23.0 25.2 20.3 85 1.7 SSW 9 13 5 7 1017.1 1017.1 0.0
17/08:00am 22.1 24.0 20.6 91 1.0 SSW 11 15 6 8 1016.8 1016.8 0.0
17/07:30am 21.6 23.8 20.4 93 0.8 SW 9 15 5 8 1016.4 1016.4 0.0
17/07:00am 21.5 23.8 20.7 95 0.5 S 9 15 5 8 1016.0 1016.0 0.0
17/06:30am 21.1 24.2 20.3 95 0.5 SSE 4 7 2 4 1015.7 1015.7 0.0
17/06:00am 21.2 23.0 20.4 95 0.5 SSE 11 13 6 7 1015.3 1015.3 0.0
17/05:30am 21.1 23.3 20.3 95 0.5 SSW 9 11 5 6 1014.9 1014.9 0.0
17/05:00am 20.7 23.1 20.0 96 0.4 SW 7 9 4 5 1014.3 1014.3 0.0
17/04:30am 21.2 24.5 20.7 97 0.3 SW 4 11 2 6 1014.2 1014.2 0.0
17/04:00am 21.4 24.4 20.9 97 0.3 SW 6 9 3 5 1014.1 1014.1 0.0
17/03:30am 21.6 24.6 21.3 98 0.2 SW 7 11 4 6 1014.1 1014.1 0.0
17/03:00am 21.7 25.7 21.4 98 0.2 WSW 2 9 1 5 1014.2 1014.2 0.0
17/02:30am 21.4 24.5 21.1 98 0.2 WSW 6 7 3 4 1014.0 1014.0 0.0
17/02:00am 21.6 25.2 21.3 98 0.2 W 4 9 2 5 1014.1 1014.1 0.0
17/01:30am 21.9 25.1 21.6 98 0.2 W 7 11 4 6 1014.3 1014.3 0.0
17/01:00am 22.0 25.8 21.7 98 0.2 W 4 7 2 4 1014.4 1014.4 0.0
17/12:30am 21.9 25.7 21.6 98 0.2 W 4 7 2 4 1014.7 1014.7 0.0
17/12:00am 22.0 25.2 21.7 98 0.2 W 7 9 4 5 1014.6 1014.6 0.0
 
Date/Time
EST
Temp
°C
App
Temp
°C
Dew
Point
°C
Rel
Hum
%
Delta-T
°C
Wind Press
QNH
hPa
Press
MSL
hPa
Rain since
9am
mm
Dir  Spd
km/h
Gust
km/h
Spd
kts
Gust
kts
16/11:30pm 22.0 24.8 21.5 97 0.3 NW 9 11 5 6 1014.5 1014.5 0.0
16/11:17pm 22.1 25.5 21.6 97 0.3 NNW 6 9 3 5 1014.6 1014.6 0.0
16/11:00pm 21.9 26.3 21.4 97 0.3 CALM 0 0 0 0 1014.5 1014.5 0.0
16/10:35pm 22.0 25.6 21.3 96 0.5 NNW 4 7 2 4 1014.5 1014.5 0.0
16/10:30pm 21.9 25.8 21.2 96 0.5 NNW 2 7 1 4 1014.6 1014.6 0.0
16/10:18pm 22.0 26.4 21.3 96 0.5 CALM 0 0 0 0 1014.5 1014.5 0.0
16/10:00pm 22.2 25.9 21.5 96 0.5 NNW 4 7 2 4 1014.5 1014.5 0.0
16/09:43pm 22.4 26.6 21.7 96 0.5 NNW 2 6 1 3 1014.5 1014.5 0.0
16/09:30pm 22.1 26.1 21.3 95 0.5 NNW 2 6 1 3 1014.4 1014.4 0.0
16/09:00pm 22.6 26.5 21.8 95 0.5 NNW 4 7 2 4 1014.4 1014.4 0.0
16/08:30pm 22.5 25.5 21.3 93 0.8 NNW 7 7 4 4 1014.3 1014.3 0.0
16/08:00pm 23.3 26.7 21.7 91 1.1 NNW 6 7 3 4 1014.0 1014.0 0.0
16/07:30pm 23.7 26.3 22.0 90 1.1 N 11 15 6 8 1013.8 1013.8 0.0
16/07:00pm 23.9 27.3 22.0 89 1.3 N 7 11 4 6 1013.7 1013.7 0.0
16/06:30pm 23.9 27.6 22.2 90 1.1 NNW 6 7 3 4 1013.6 1013.6 0.0
16/06:00pm 24.1 26.7 22.0 88 1.4 N 11 15 6 8 1013.0 1013.0 0.0
16/05:30pm 24.2 26.9 22.1 88 1.4 N 11 15 6 8 1012.8 1012.8 0.0
16/05:00pm 24.3 26.6 22.0 87 1.5 NNE 13 17 7 9 1012.7 1012.7 0.0
16/04:30pm 24.5 27.5 22.0 86 1.7 NNE 9 13 5 7 1012.5 1012.5 0.0
16/04:00pm 24.8 28.1 21.9 84 1.9 N 7 9 4 5 1012.3 1012.3 0.0
16/03:30pm 24.9 27.1 21.8 83 2.1 NNE 13 19 7 10 1012.2 1012.2 0.0
16/03:00pm 24.8 26.5 21.7 83 2.1 NNE 15 19 8 10 1012.1 1012.1 0.0
16/02:30pm 25.0 26.0 21.7 82 2.2 NNE 19 22 10 12 1012.0 1012.0 0.0
16/02:00pm 26.4 28.2 22.5 79 2.6 NNE 17 19 9 10 1012.1 1012.1 0.0
16/01:30pm 26.0 27.8 21.9 78 2.7 NNE 15 17 8 9 1012.2 1012.2 0.0
16/01:00pm 26.0 28.5 21.7 77 2.9 NNE 11 15 6 8 1012.4 1012.4 0.0
16/12:30pm 26.5 29.4 21.7 75 3.2 WNW 9 13 5 7 1012.9 1012.9 0.0
16/12:00pm 25.9 28.3 21.6 77 2.9 NW 11 15 6 8 1013.3 1013.3 0.0
16/11:30am 25.6 27.9 21.3 77 2.8 NW 11 17 6 9 1013.6 1013.6 0.0
16/11:21am 26.1 28.5 21.5 76 3.1 NNW 11 15 6 8 1013.6 1013.6 0.0
16/11:09am 25.9 28.7 21.6 77 2.9 NNW 9 19 5 10 1013.8 1013.8 0.0
16/11:00am 25.8 28.8 21.9 79 2.6 NNW 9 15 5 8 1013.9 1013.9 0.0
16/10:55am 25.3 27.6 21.4 79 2.6 NW 11 15 6 8 1014.0 1014.0 0.0
16/10:30am 24.9 28.2 21.8 83 2.1 WNW 7 11 4 6 1014.2 1014.2 0.0
16/10:22am 24.6 27.6 21.9 85 1.8 NW 9 13 5 7 1014.3 1014.3 0.0
16/10:00am 23.8 27.3 22.1 90 1.1 NW 7 11 4 6 1014.4 1014.4 0.0
16/09:30am 22.8 26.0 22.3 97 0.3 NW 9 13 5 7 1014.5 1014.5 0.0
16/09:00am 22.3 25.4 22.1 99 0.1 NNW 9 13 5 7 1014.6 1014.6 3.4
16/08:58am 22.3 25.4 22.1 99 0.1 NW 9 13 5 7 1014.6 1014.6 3.4
16/08:30am 21.4 25.7 21.2 99 0.1 CALM 0 0 0 0 1014.4 1014.4 3.4
16/08:00am 21.1 24.5 20.9 99 0.1 W 4 7 2 4 1014.1 1014.1 3.4
16/07:30am 20.8 24.1 20.8 100 0.0 W 4 6 2 3 1013.8 1013.8 3.4
16/07:24am 20.6 24.6 20.6 100 0.0 CALM 0 0 0 0 1013.8 1013.8 3.4
16/07:00am 19.9 23.5 19.7 99 0.1 CALM 0 0 0 0 1013.5 1013.5 3.4
16/06:30am 19.4 22.7 19.2 99 0.1 CALM 0 0 0 0 1013.1 1013.1 3.4
16/06:00am 18.6 21.5 18.3 98 0.2 CALM 0 0 0 0 1012.7 1012.7 3.4
16/05:53am 18.9 22.0 18.6 98 0.2 CALM 0 0 0 0 1012.6 1012.6 3.4
16/05:30am 19.6 23.0 19.4 99 0.1 CALM 0 0 0 0 1012.2 1012.2 3.4
16/05:26am 19.5 22.9 19.3 99 0.1 CALM 0 0 0 0 1012.2 1012.2 3.4
16/05:15am 19.2 22.4 18.9 98 0.2 CALM 0 0 0 0 1012.0 1012.0 3.4
16/05:08am 19.6 23.0 19.4 99 0.1 CALM 0 2 0 1 1011.9 1011.9 3.4
16/05:00am 19.7 23.1 19.4 98 0.2 CALM 0 4 0 2 1011.9 1011.9 3.4
16/04:58am 19.7 22.8 19.4 98 0.2 W 2 6 1 3 1011.9 1011.9 3.4
16/04:57am 19.7 22.8 19.4 98 0.2 W 2 6 1 3 1011.9 1011.9 3.4
16/04:44am 19.7 21.8 19.4 98 0.2 W 7 11 4 6 1011.8 1011.8 3.4
16/04:30am 19.6 22.6 19.3 98 0.2 NW 2 7 1 4 1011.9 1011.9 3.4
16/04:02am 19.2 22.3 18.7 97 0.3 CALM 0 0 0 0 1011.8 1011.8 3.4
16/04:00am 19.1 22.2 18.6 97 0.3 CALM 0 0 0 0 1011.8 1011.8 3.4
16/03:30am 19.6 22.9 19.1 97 0.3 CALM 0 0 0 0 1011.7 1011.7 3.4
16/03:28am 19.4 22.6 18.9 97 0.3 CALM 0 0 0 0 1011.7 1011.7 3.4
16/03:21am 19.6 22.9 19.1 97 0.3 CALM 0 0 0 0 1011.7 1011.7 3.4
16/03:19am 19.6 22.9 19.1 97 0.3 CALM 0 0 0 0 1011.7 1011.7 3.4
16/03:00am 19.8 23.2 19.3 97 0.3 CALM 0 0 0 0 1011.7 1011.7 3.4
16/02:30am 20.6 23.2 20.1 97 0.3 NW 6 6 3 3 1011.8 1011.8 3.4
16/02:00am 20.6 23.2 20.1 97 0.3 NW 6 7 3 4 1012.1 1012.1 3.4
16/01:30am 21.1 25.1 20.6 97 0.3 CALM 0 0 0 0 1012.4 1012.4 3.4
16/01:00am 21.3 25.0 20.8 97 0.3 W 2 6 1 3 1012.6 1012.6 3.4
16/12:30am 21.5 25.6 20.8 96 0.5 CALM 0 0 0 0 1012.7 1012.7 3.4
16/12:00am 21.5 24.8 20.8 96 0.5 W 4 7 2 4 1012.9 1012.9 3.4
 
Date/Time
EST
Temp
°C
App
Temp
°C
Dew
Point
°C
Rel
Hum
%
Delta-T
°C
Wind Press
QNH
hPa
Press
MSL
hPa
Rain since
9am
mm
Dir  Spd
km/h
Gust
km/h
Spd
kts
Gust
kts
15/11:30pm 21.4 23.7 20.6 95 0.5 WNW 9 15 5 8 1013.1 1013.1 3.4
15/11:22pm 21.5 23.8 20.7 95 0.5 WNW 9 13 5 7 1013.3 1013.3 3.4
15/11:12pm 21.6 23.2 20.8 95 0.5 WNW 13 20 7 11 1013.4 1013.4 3.4
15/11:00pm 21.6 23.1 20.6 94 0.6 NW 13 19 7 10 1013.4 1013.4 3.4
15/10:42pm 22.1 24.6 21.1 94 0.7 N 9 13 5 7 1013.4 1013.4 3.4
15/10:34pm 22.6 25.0 21.6 94 0.7 NNE 11 17 6 9 1013.4 1013.4 3.4
15/10:30pm 22.7 25.6 21.7 94 0.7 NE 9 17 5 9 1013.3 1013.3 3.4
15/10:00pm 23.0 25.7 22.2 95 0.5 ENE 11 15 6 8 1013.4 1013.4 3.4
15/09:41pm 23.1 25.9 22.3 95 0.5 ENE 11 15 6 8 1013.5 1013.5 3.4
15/09:32pm 23.1 25.9 22.3 95 0.5 E 11 15 6 8 1013.6 1013.6 3.4
15/09:30pm 23.0 26.1 22.2 95 0.5 E 9 13 5 7 1013.6 1013.6 3.4
15/09:00pm 23.2 25.9 22.2 94 0.7 E 11 17 6 9 1013.5 1013.5 3.4
15/08:51pm 23.3 26.1 22.3 94 0.7 E 11 15 6 8 1013.5 1013.5 3.4
15/08:30pm 23.2 26.1 22.4 95 0.5 E 11 15 6 8 1013.3 1013.3 3.4
15/08:00pm 23.2 25.1 22.7 97 0.3 ENE 17 22 9 12 1012.9 1012.9 3.4
15/07:59pm 23.2 25.1 22.7 97 0.3 ENE 17 20 9 11 1012.9 1012.9 3.4
15/07:37pm 23.2 25.6 22.9 98 0.2 ENE 15 22 8 12 1013.0 1013.0 3.4
15/07:30pm 23.2 25.2 22.9 98 0.2 ENE 17 20 9 11 1012.9 1012.9 3.4
15/07:29pm 23.2 25.2 22.9 98 0.2 ENE 17 20 9 11 1012.9 1012.9 3.4
15/07:00pm 22.9 24.7 22.6 98 0.2 ENE 17 20 9 11 1012.6 1012.6 3.4
15/06:30pm 23.1 26.9 22.8 98 0.2 ENE 7 11 4 6 1012.3 1012.3 3.4
15/06:11pm 23.2 25.9 22.9 98 0.2 E 13 17 7 9 1012.3 1012.3 3.4
15/06:09pm 23.1 25.8 22.8 98 0.2 E 13 17 7 9 1012.3 1012.3 3.4
15/06:00pm 23.0 25.1 22.5 97 0.3 ENE 15 19 8 10 1012.1 1012.1 3.4
15/05:30pm 23.1 25.6 22.4 96 0.5 NE 13 17 7 9 1011.9 1011.9 1.0
15/05:21pm 23.2 25.7 22.4 95 0.5 ENE 13 19 7 10 1011.9 1011.9 0.4
15/05:13pm 23.5 26.5 22.7 95 0.5 E 11 13 6 7 1011.8 1011.8 0.2
15/05:00pm 23.4 26.4 22.6 95 0.5 E 11 15 6 8 1011.7 1011.7 0.2
15/04:58pm 23.4 26.4 22.6 95 0.5 E 11 15 6 8 1011.7 1011.7 0.2
15/04:30pm 23.4 25.6 22.6 95 0.5 ENE 15 24 8 13 1011.5 1011.5 0.2
15/04:00pm 23.7 25.5 22.5 93 0.8 E 17 20 9 11 1011.2 1011.2 0.2
15/03:30pm 23.7 25.6 22.7 94 0.7 ENE 17 24 9 13 1011.1 1011.1 0.2
15/03:29pm 23.6 25.4 22.6 94 0.7 ENE 17 24 9 13 1011.1 1011.1 0.2
15/03:10pm 23.8 25.7 22.8 94 0.7 ENE 17 24 9 13 1011.2 1011.2 0.2
15/03:00pm 23.8 24.8 22.2 91 1.1 ENE 20 26 11 14 1011.3 1011.3 0.2
15/02:30pm 24.5 26.6 22.4 88 1.4 ENE 15 20 8 11 1011.4 1011.4 0.2
15/02:00pm 24.5 26.1 22.2 87 1.5 ENE 17 22 9 12 1011.5 1011.5 0.2
15/01:30pm 24.5 26.2 22.4 88 1.4 ENE 17 24 9 13 1011.8 1011.8 0.2
15/01:00pm 25.0 27.1 23.1 89 1.3 ENE 17 22 9 12 1012.1 1012.1 0.2
15/12:30pm 24.5 26.4 22.8 90 1.1 NE 17 22 9 12 1012.5 1012.5 0.2
15/12:00pm 23.9 25.9 22.9 94 0.7 ENE 17 24 9 13 1013.0 1013.0 0.2
15/11:46am 23.9 25.4 22.7 93 0.8 ENE 19 26 10 14 1013.2 1013.2 0.2
15/11:30am 24.1 25.8 22.4 90 1.1 ENE 17 22 9 12 1013.5 1013.5 0.2
15/11:00am 24.5 25.8 22.6 89 1.3 ENE 20 26 11 14 1013.9 1013.9 0.2
15/10:30am 24.6 26.5 22.7 89 1.3 ENE 17 22 9 12 1014.1 1014.1 0.2
15/10:00am 23.9 25.8 22.7 93 0.8 ENE 17 22 9 12 1014.5 1014.5 0.2
15/09:30am 23.8 26.1 22.8 94 0.7 NE 15 19 8 10 1014.6 1014.6 0.2
15/09:10am 23.6 25.9 22.8 95 0.5 NE 15 20 8 11 1014.6 1014.6 0.2
15/09:00am 23.5 25.0 22.7 95 0.5 NE 19 24 10 13 1014.6 1014.6 19.6
15/08:30am 23.3 25.0 22.3 94 0.7 NE 17 24 9 13 1014.4 1014.4 19.6
15/08:00am 23.5 25.4 22.1 92 0.9 NE 15 20 8 11 1014.2 1014.2 19.6
15/07:30am 23.2 25.2 22.2 94 0.7 NE 15 20 8 11 1014.2 1014.2 19.6
15/07:00am 23.2 24.6 21.8 92 0.9 ENE 17 24 9 13 1014.0 1014.0 19.6
15/06:30am 23.2 24.3 22.0 93 0.8 ENE 19 22 10 12 1013.6 1013.6 19.6
15/06:00am 23.0 23.9 22.0 94 0.7 ENE 20 26 11 14 1013.3 1013.3 19.6
15/05:30am 23.1 23.7 22.1 94 0.7 ENE 22 32 12 17 1013.0 1013.0 19.6
15/05:00am 23.1 24.1 22.1 94 0.7 ENE 20 24 11 13 1012.8 1012.8 19.6
15/04:30am 23.0 24.1 22.0 94 0.7 NE 19 30 10 16 1012.7 1012.7 19.4
15/04:00am 23.0 23.9 22.0 94 0.7 NE 20 24 11 13 1012.7 1012.7 19.4
15/03:30am 22.8 23.6 21.8 94 0.7 NE 20 28 11 15 1012.7 1012.7 19.4
15/03:00am 22.9 24.0 21.9 94 0.7 NE 19 28 10 15 1012.8 1012.8 19.4
15/02:30am 22.9 24.1 22.1 95 0.5 NE 19 24 10 13 1012.9 1012.9 19.4
15/02:00am 22.8 23.7 22.0 95 0.5 NE 20 28 11 15 1013.1 1013.1 19.4
15/01:30am 22.8 23.2 21.8 94 0.7 NE 22 30 12 16 1013.3 1013.3 19.4
15/01:06am 23.1 24.2 21.9 93 0.8 ENE 19 26 10 14 1013.3 1013.3 19.4
15/01:02am 23.1 23.9 21.7 92 0.9 NE 20 32 11 17 1013.3 1013.3 19.4
15/01:00am 23.1 23.9 21.7 92 0.9 NE 20 32 11 17 1013.3 1013.3 19.4
15/12:30am 22.8 22.8 21.6 93 0.8 ENE 24 32 13 17 1013.5 1013.5 19.4
15/12:10am 22.7 22.6 21.5 93 0.8 NE 24 37 13 20 1013.6 1013.6 19.4
15/12:06am 22.6 22.1 21.4 93 0.8 ENE 26 37 14 20 1013.6 1013.6 19.4
15/12:00am 22.7 22.6 21.5 93 0.8 ENE 24 35 13 19 1013.5 1013.5 19.4
 
Date/Time
EST
Temp
°C
App
Temp
°C
Dew
Point
°C
Rel
Hum
%
Delta-T
°C
Wind Press
QNH
hPa
Press
MSL
hPa
Rain since
9am
mm
Dir  Spd
km/h
Gust
km/h
Spd
kts
Gust
kts
14/11:54pm 22.6 22.1 21.4 93 0.8 ENE 26 37 14 20 1013.6 1013.6 19.4
14/11:51pm 22.7 22.2 21.5 93 0.8 NE 26 37 14 20 1013.6 1013.6 19.4
14/11:30pm 22.6 22.2 21.6 94 0.7 NE 26 35 14 19 1013.7 1013.7 19.4
14/11:27pm 22.5 22.0 21.5 94 0.7 ENE 26 35 14 19 1013.7 1013.7 19.4
14/11:00pm 22.3 22.2 21.5 95 0.5 ENE 24 37 13 20 1013.9 1013.9 19.4
14/10:39pm 22.4 22.7 21.6 95 0.5 ENE 22 35 12 19 1014.1 1014.1 19.4
14/10:38pm 22.4 22.7 21.6 95 0.5 ENE 22 35 12 19 1014.0 1014.0 19.4
14/10:31pm 22.3 22.2 21.5 95 0.5 ENE 24 35 13 19 1014.0 1014.0 19.0
14/10:30pm 22.3 22.6 21.5 95 0.5 ENE 22 35 12 19 1014.0 1014.0 19.0
14/10:10pm 22.4 22.6 21.4 94 0.7 ENE 22 30 12 16 1014.2 1014.2 18.2
14/10:00pm 22.4 22.3 21.4 94 0.7 ENE 24 35 13 19 1014.3 1014.3 18.2
14/09:30pm 22.2 21.1 21.0 93 0.8 ENE 28 37 15 20 1014.3 1014.3 17.6
14/09:21pm 22.6 21.6 21.2 92 0.9 ENE 28 33 15 18 1014.3 1014.3 17.6
14/09:00pm 22.6 22.3 21.1 91 1.0 ENE 24 35 13 19 1014.3 1014.3 17.6
14/08:30pm 22.3 21.1 20.9 92 0.9 ENE 28 39 15 21 1014.2 1014.2 17.6
14/08:00pm 22.3 22.0 21.1 93 0.8 ENE 24 35 13 19 1014.4 1014.4 17.4
14/07:30pm 22.2 21.2 20.5 90 1.1 ENE 26 35 14 19 1014.3 1014.3 17.4
14/07:27pm 22.3 21.4 20.6 90 1.1 ENE 26 33 14 18 1014.3 1014.3 17.4
14/07:22pm 22.4 22.0 20.9 91 1.0 E 24 33 13 18 1014.2 1014.2 17.4
14/07:00pm 22.3 21.1 20.8 91 1.0 ENE 28 41 15 22 1014.1 1014.1 17.4
14/06:30pm 22.1 21.6 20.7 92 0.9 E 24 33 13 18 1013.9 1013.9 17.4
14/06:00pm 22.1 21.7 20.9 93 0.8 E 24 37 13 20 1013.7 1013.7 17.4

Other formats

Comma delimited format used in spreadsheet applications
http://www.bom.gov.au/fwo/IDQ60801/IDQ60801.94592.axf

JavaScript Object Notation format (JSON) in row-major order
http://www.bom.gov.au/fwo/IDQ60801/IDQ60801.94592.json

Data quality

Most of these data are generated automatically and are frequently updated. Quality checks on data are not normally performed. It is possible for incorrect values to appear. Refer to information at About Latest Weather Observations and please check the disclaimer before using these data.